»·PEaware :: SWA4681 KLAS-KBUR

SWA4681 :: KLAS-KBUR

FLIGHT INFORMATION

Flight Status: Arrived
Operator:
Southwest Airlines
More flights by this operator :: More flights under this callsign
Pilot: Jack B. (5846)
Aircraft: BOEING 737-800
(B738)
More flights by this aircraft type
Origin: KLAS McCarran Intl
United States
Destination: KBUR Bob Hope-Burbank
United States
More flights between these airports :: More routes between these airports
Route: +BOACH8 WHIGG KREME JANNY5
File this flight plan on PilotEdge
Remarks:
Altitude:
(Current/Filed)
220ft
Speed:
(Current/Filed)
320kts
Departed: 21-Mar-20 02:02 PM
Arrived: 21-Mar-20 02:45 PM
Distance/Time
Traveled:
193nm/0:43
Distance/Time
To Go:
Arrived

Flight Plot

Page will automatically refresh every two minutes.

Flight plan parsing failed; only flown route is shown


Map Options




Map Legend


Flown Route
Filed Route
Departure Airport
Arrival Airport
Navaid (VOR, NDB)
Fix

Horizontal Profiles

Position Reports

Time Latitude Longitude Heading Altitude Ground
Speed
21-Mar-20 13:47 36.079930 -115.147114 57 2150ft 0kts
21-Mar-20 13:48 36.079930 -115.147114 57 2150ft 0kts
21-Mar-20 13:49 36.079930 -115.147114 57 2150ft 0kts
21-Mar-20 13:50 36.079930 -115.147114 57 2150ft 0kts
21-Mar-20 13:51 36.079930 -115.147114 57 2150ft 0kts
21-Mar-20 13:52 36.079930 -115.147114 57 2150ft 0kts
21-Mar-20 13:53 36.079830 -115.147306 57 2150ft 0kts
21-Mar-20 13:54 36.079580 -115.147810 54 2150ft 0kts
21-Mar-20 13:55 36.079580 -115.147810 54 2150ft 0kts
21-Mar-20 13:56 36.079494 -115.147643 150 2150ft 1kts
21-Mar-20 13:57 36.077665 -115.145377 93 2150ft 20kts
21-Mar-20 13:58 36.077498 -115.136137 87 2150ft 29kts
21-Mar-20 13:59 36.077521 -115.125585 88 2150ft 30kts
21-Mar-20 14:00 36.077441 -115.121630 119 2150ft 0kts
21-Mar-20 14:01 36.076397 -115.125201 269 2150ft 76kts
21-Mar-20 14:03 36.076188 -115.180178 270 3680ft 196kts
21-Mar-20 14:04 36.064416 -115.251427 211 5608ft 250kts
21-Mar-20 14:05 35.995955 -115.289879 203 6733ft 280kts
21-Mar-20 14:06 35.920511 -115.307101 187 9172ft 287kts
21-Mar-20 14:07 35.839982 -115.311556 176 12069ft 299kts
21-Mar-20 14:08 35.755820 -115.303667 175 14801ft 309kts
21-Mar-20 14:09 35.672159 -115.311288 222 17152ft 316kts
21-Mar-20 14:10 35.606948 -115.393025 226 18736ft 351kts
21-Mar-20 14:11 35.538175 -115.483389 227 20538ft 374kts
21-Mar-20 14:12 35.464089 -115.577863 225 21763ft 407kts
21-Mar-20 14:13 35.379066 -115.677328 224 21961ft 442kts
21-Mar-20 14:14 35.288421 -115.782269 224 22090ft 452kts
21-Mar-20 14:15 35.197833 -115.888788 224 22155ft 452kts
21-Mar-20 14:16 35.109288 -115.993235 224 22157ft 451kts
21-Mar-20 14:17 35.019309 -116.098968 225 22139ft 450kts
21-Mar-20 14:18 34.932905 -116.202291 227 22186ft 438kts
21-Mar-20 14:18 34.885065 -116.308677 245 22177ft 428kts
21-Mar-20 14:20 34.826196 -116.457699 245 22153ft 428kts
21-Mar-20 14:21 34.784408 -116.591714 262 22155ft 428kts
21-Mar-20 14:21 34.772591 -116.711319 262 22152ft 428kts
21-Mar-20 14:22 34.758423 -116.854906 262 22155ft 428kts
21-Mar-20 14:24 34.743169 -117.006970 261 22413ft 367kts
21-Mar-20 14:24 34.732885 -117.106349 260 22184ft 368kts
21-Mar-20 14:25 34.720797 -117.228734 261 21416ft 375kts
21-Mar-20 14:26 34.707932 -117.353802 260 20092ft 376kts
21-Mar-20 14:28 34.692036 -117.501512 260 18334ft 381kts
21-Mar-20 14:28 34.680806 -117.607158 260 17082ft 376kts
21-Mar-20 14:29 34.667605 -117.731630 261 15566ft 373kts
21-Mar-20 14:30 34.654212 -117.855899 261 14151ft 369kts
21-Mar-20 14:31 34.640912 -117.977810 260 13402ft 368kts
21-Mar-20 14:32 34.625213 -118.097262 255 12468ft 340kts
21-Mar-20 14:33 34.601978 -118.202647 253 10839ft 318kts
21-Mar-20 14:34 34.578395 -118.304269 253 8982ft 307kts
21-Mar-20 14:35 34.556743 -118.399771 254 8271ft 278kts
21-Mar-20 14:36 34.499871 -118.441997 182 6615ft 296kts
21-Mar-20 14:37 34.438898 -118.489466 218 6210ft 243kts
21-Mar-20 14:38 34.382270 -118.515641 179 4977ft 215kts
21-Mar-20 14:39 34.326774 -118.503745 159 3702ft 198kts
21-Mar-20 14:40 34.278808 -118.475986 149 2526ft 184kts
21-Mar-20 14:41 34.241371 -118.446166 143 1825ft 166kts
21-Mar-20 14:42 34.207335 -118.409891 128 1242ft 149kts
21-Mar-20 14:43 34.197869 -118.365174 92 793ft 139kts
21-Mar-20 14:44 34.196821 -118.350609 179 786ft 0kts

Navigation Log

Ident Type
Flight plan parsing failed, navigation log unavailable